sensor_id;sensor_type;location;lat;lon;timestamp;temperature;humidity
41547;DHT22;27271;45.412;10.852;2022-09-13T00:00:03;18.10;99.90
41547;DHT22;27271;45.412;10.852;2022-09-13T00:03:26;18.20;99.90
41547;DHT22;27271;45.412;10.852;2022-09-13T00:06:49;18.10;99.90
41547;DHT22;27271;45.412;10.852;2022-09-13T00:10:11;18.20;99.90
41547;DHT22;27271;45.412;10.852;2022-09-13T00:13:33;18.20;99.90
41547;DHT22;27271;45.412;10.852;2022-09-13T00:16:55;18.20;99.90
41547;DHT22;27271;45.412;10.852;2022-09-13T00:20:17;18.10;99.90
41547;DHT22;27271;45.412;10.852;2022-09-13T00:23:39;18.10;99.90
41547;DHT22;27271;45.412;10.852;2022-09-13T00:27:04;18.10;99.90
41547;DHT22;27271;45.412;10.852;2022-09-13T00:30:26;18.10;99.90
41547;DHT22;27271;45.412;10.852;2022-09-13T00:33:48;18.10;99.90
41547;DHT22;27271;45.412;10.852;2022-09-13T00:37:10;18.10;99.90
41547;DHT22;27271;45.412;10.852;2022-09-13T00:40:36;18.10;99.90
41547;DHT22;27271;45.412;10.852;2022-09-13T00:44:00;18.10;99.90
41547;DHT22;27271;45.412;10.852;2022-09-13T00:47:52;18.00;99.90
41547;DHT22;27271;45.412;10.852;2022-09-13T00:51:17;18.00;99.90
41547;DHT22;27271;45.412;10.852;2022-09-13T00:54:45;18.00;99.90
41547;DHT22;27271;45.412;10.852;2022-09-13T00:58:12;18.00;99.90
41547;DHT22;27271;45.412;10.852;2022-09-13T01:01:55;18.00;99.90
41547;DHT22;27271;45.412;10.852;2022-09-13T01:05:20;18.00;99.90
41547;DHT22;27271;45.412;10.852;2022-09-13T01:08:47;18.00;99.90
41547;DHT22;27271;45.412;10.852;2022-09-13T01:12:29;18.00;99.90
41547;DHT22;27271;45.412;10.852;2022-09-13T01:15:53;18.00;99.90
41547;DHT22;27271;45.412;10.852;2022-09-13T01:19:15;17.90;99.90
41547;DHT22;27271;45.412;10.852;2022-09-13T01:27:25;17.90;99.90
41547;DHT22;27271;45.412;10.852;2022-09-13T01:31:20;17.80;99.90
41547;DHT22;27271;45.412;10.852;2022-09-13T01:35:08;17.80;99.90
41547;DHT22;27271;45.412;10.852;2022-09-13T01:54:08;17.80;99.90
41547;DHT22;27271;45.412;10.852;2022-09-13T02:04:38;17.80;99.90
41547;DHT22;27271;45.412;10.852;2022-09-13T02:08:10;17.80;99.90
41547;DHT22;27271;45.412;10.852;2022-09-13T02:11:34;17.70;99.90
41547;DHT22;27271;45.412;10.852;2022-09-13T02:15:14;17.70;99.90
41547;DHT22;27271;45.412;10.852;2022-09-13T02:18:40;17.70;99.90
41547;DHT22;27271;45.412;10.852;2022-09-13T02:22:06;17.60;99.90
41547;DHT22;27271;45.412;10.852;2022-09-13T02:25:31;17.50;99.90
41547;DHT22;27271;45.412;10.852;2022-09-13T02:28:57;17.50;99.90
41547;DHT22;27271;45.412;10.852;2022-09-13T02:35:55;17.50;99.90
41547;DHT22;27271;45.412;10.852;2022-09-13T02:39:24;17.50;99.90
41547;DHT22;27271;45.412;10.852;2022-09-13T02:43:00;17.50;99.90
41547;DHT22;27271;45.412;10.852;2022-09-13T02:50:14;17.40;99.90
41547;DHT22;27271;45.412;10.852;2022-09-13T02:57:31;17.30;99.90
41547;DHT22;27271;45.412;10.852;2022-09-13T03:00:54;17.30;99.90
41547;DHT22;27271;45.412;10.852;2022-09-13T03:04:16;17.30;99.90
41547;DHT22;27271;45.412;10.852;2022-09-13T03:07:39;17.30;99.90
41547;DHT22;27271;45.412;10.852;2022-09-13T03:29:38;17.10;99.90
41547;DHT22;27271;45.412;10.852;2022-09-13T03:33:41;17.10;99.90
41547;DHT22;27271;45.412;10.852;2022-09-13T03:37:10;17.10;99.90
41547;DHT22;27271;45.412;10.852;2022-09-13T03:40:59;17.10;99.90
41547;DHT22;27271;45.412;10.852;2022-09-13T03:44:26;17.00;99.90
41547;DHT22;27271;45.412;10.852;2022-09-13T03:47:50;17.00;99.90
41547;DHT22;27271;45.412;10.852;2022-09-13T03:51:13;17.00;99.90
41547;DHT22;27271;45.412;10.852;2022-09-13T03:54:36;16.90;99.90
41547;DHT22;27271;45.412;10.852;2022-09-13T03:57:59;16.80;99.90
41547;DHT22;27271;45.412;10.852;2022-09-13T04:01:23;16.80;99.90
41547;DHT22;27271;45.412;10.852;2022-09-13T04:04:45;16.70;99.90
41547;DHT22;27271;45.412;10.852;2022-09-13T04:08:07;16.70;99.90
41547;DHT22;27271;45.412;10.852;2022-09-13T04:11:29;16.60;99.90
41547;DHT22;27271;45.412;10.852;2022-09-13T04:14:53;16.50;99.90
41547;DHT22;27271;45.412;10.852;2022-09-13T04:18:15;16.40;99.90
41547;DHT22;27271;45.412;10.852;2022-09-13T04:21:38;16.40;99.90
41547;DHT22;27271;45.412;10.852;2022-09-13T04:25:00;16.40;99.90
41547;DHT22;27271;45.412;10.852;2022-09-13T04:28:23;16.30;99.90
41547;DHT22;27271;45.412;10.852;2022-09-13T04:31:45;16.20;99.90
41547;DHT22;27271;45.412;10.852;2022-09-13T04:35:08;16.20;99.90
41547;DHT22;27271;45.412;10.852;2022-09-13T04:38:30;16.20;99.90
41547;DHT22;27271;45.412;10.852;2022-09-13T04:41:52;16.10;99.90
41547;DHT22;27271;45.412;10.852;2022-09-13T04:45:15;16.10;99.90
41547;DHT22;27271;45.412;10.852;2022-09-13T04:48:37;16.00;99.90
41547;DHT22;27271;45.412;10.852;2022-09-13T04:52:03;16.00;99.90
41547;DHT22;27271;45.412;10.852;2022-09-13T04:55:25;16.00;99.90
41547;DHT22;27271;45.412;10.852;2022-09-13T04:58:52;15.90;99.90
41547;DHT22;27271;45.412;10.852;2022-09-13T05:02:15;15.90;99.90
41547;DHT22;27271;45.412;10.852;2022-09-13T05:05:37;15.80;99.90
41547;DHT22;27271;45.412;10.852;2022-09-13T05:08:59;15.90;99.90
41547;DHT22;27271;45.412;10.852;2022-09-13T05:12:24;16.00;99.90
41547;DHT22;27271;45.412;10.852;2022-09-13T05:15:53;16.10;99.90
41547;DHT22;27271;45.412;10.852;2022-09-13T05:19:15;16.10;99.90
41547;DHT22;27271;45.412;10.852;2022-09-13T05:22:38;16.30;99.90
41547;DHT22;27271;45.412;10.852;2022-09-13T05:26:03;16.40;99.90
41547;DHT22;27271;45.412;10.852;2022-09-13T05:29:25;16.40;99.90
41547;DHT22;27271;45.412;10.852;2022-09-13T05:32:47;16.60;99.90
41547;DHT22;27271;45.412;10.852;2022-09-13T05:36:10;16.90;99.90
41547;DHT22;27271;45.412;10.852;2022-09-13T05:39:32;17.30;99.90
41547;DHT22;27271;45.412;10.852;2022-09-13T05:43:14;18.50;99.90
41547;DHT22;27271;45.412;10.852;2022-09-13T05:46:36;20.00;99.90
41547;DHT22;27271;45.412;10.852;2022-09-13T05:49:58;21.30;99.90
41547;DHT22;27271;45.412;10.852;2022-09-13T05:53:33;22.50;99.90
41547;DHT22;27271;45.412;10.852;2022-09-13T05:56:55;23.70;98.10
41547;DHT22;27271;45.412;10.852;2022-09-13T06:00:18;24.70;96.30
41547;DHT22;27271;45.412;10.852;2022-09-13T06:03:40;25.80;92.40
41547;DHT22;27271;45.412;10.852;2022-09-13T06:07:03;26.50;88.90
41547;DHT22;27271;45.412;10.852;2022-09-13T06:10:25;27.20;87.40
41547;DHT22;27271;45.412;10.852;2022-09-13T06:13:47;28.10;83.80
41547;DHT22;27271;45.412;10.852;2022-09-13T06:17:09;28.40;78.40
41547;DHT22;27271;45.412;10.852;2022-09-13T06:20:31;29.20;77.00
41547;DHT22;27271;45.412;10.852;2022-09-13T06:23:53;30.00;72.20
41547;DHT22;27271;45.412;10.852;2022-09-13T06:27:15;30.10;70.40
41547;DHT22;27271;45.412;10.852;2022-09-13T06:30:37;30.20;71.50
41547;DHT22;27271;45.412;10.852;2022-09-13T06:34:00;30.50;69.10
41547;DHT22;27271;45.412;10.852;2022-09-13T06:37:25;30.70;65.30
41547;DHT22;27271;45.412;10.852;2022-09-13T06:40:47;30.70;65.00
41547;DHT22;27271;45.412;10.852;2022-09-13T06:44:10;30.80;67.10
41547;DHT22;27271;45.412;10.852;2022-09-13T06:47:33;30.80;65.40
41547;DHT22;27271;45.412;10.852;2022-09-13T06:50:57;30.40;67.80
41547;DHT22;27271;45.412;10.852;2022-09-13T06:54:19;30.50;66.50
41547;DHT22;27271;45.412;10.852;2022-09-13T06:57:41;30.10;66.30
41547;DHT22;27271;45.412;10.852;2022-09-13T07:01:11;30.20;66.20
41547;DHT22;27271;45.412;10.852;2022-09-13T07:04:35;30.40;64.30
41547;DHT22;27271;45.412;10.852;2022-09-13T07:07:57;30.90;68.10
41547;DHT22;27271;45.412;10.852;2022-09-13T07:11:22;31.60;63.70
41547;DHT22;27271;45.412;10.852;2022-09-13T07:14:44;32.10;63.70
41547;DHT22;27271;45.412;10.852;2022-09-13T07:18:06;32.50;60.70
41547;DHT22;27271;45.412;10.852;2022-09-13T07:21:28;32.40;65.10
41547;DHT22;27271;45.412;10.852;2022-09-13T07:24:50;32.50;59.40
41547;DHT22;27271;45.412;10.852;2022-09-13T07:28:12;32.20;62.30
41547;DHT22;27271;45.412;10.852;2022-09-13T07:31:37;32.70;58.20
41547;DHT22;27271;45.412;10.852;2022-09-13T07:34:59;33.30;58.20
41547;DHT22;27271;45.412;10.852;2022-09-13T07:38:21;34.10;57.70
41547;DHT22;27271;45.412;10.852;2022-09-13T07:41:44;33.40;57.20
41547;DHT22;27271;45.412;10.852;2022-09-13T07:45:07;34.00;57.30
41547;DHT22;27271;45.412;10.852;2022-09-13T07:48:30;33.20;60.00
41547;DHT22;27271;45.412;10.852;2022-09-13T07:51:54;33.00;59.70
41547;DHT22;27271;45.412;10.852;2022-09-13T07:55:16;33.60;58.10
41547;DHT22;27271;45.412;10.852;2022-09-13T07:58:39;33.90;58.50
41547;DHT22;27271;45.412;10.852;2022-09-13T08:02:02;32.90;62.30
41547;DHT22;27271;45.412;10.852;2022-09-13T08:05:24;33.40;59.20
41547;DHT22;27271;45.412;10.852;2022-09-13T08:08:46;33.80;59.40
41547;DHT22;27271;45.412;10.852;2022-09-13T08:12:08;33.40;59.70
41547;DHT22;27271;45.412;10.852;2022-09-13T08:15:30;33.70;63.00
41547;DHT22;27271;45.412;10.852;2022-09-13T08:18:57;33.50;59.20
41547;DHT22;27271;45.412;10.852;2022-09-13T08:22:19;33.70;59.30
41547;DHT22;27271;45.412;10.852;2022-09-13T08:25:41;34.30;58.00
41547;DHT22;27271;45.412;10.852;2022-09-13T08:29:05;34.00;57.60
41547;DHT22;27271;45.412;10.852;2022-09-13T08:32:27;34.10;58.50
41547;DHT22;27271;45.412;10.852;2022-09-13T08:35:51;34.40;58.70
41547;DHT22;27271;45.412;10.852;2022-09-13T08:39:13;34.10;60.20
41547;DHT22;27271;45.412;10.852;2022-09-13T08:46:34;34.20;61.20
41547;DHT22;27271;45.412;10.852;2022-09-13T08:50:13;34.00;61.40
41547;DHT22;27271;45.412;10.852;2022-09-13T08:53:44;34.20;58.50
41547;DHT22;27271;45.412;10.852;2022-09-13T09:08:30;35.70;55.20
41547;DHT22;27271;45.412;10.852;2022-09-13T09:15:33;35.90;55.70
41547;DHT22;27271;45.412;10.852;2022-09-13T09:19:10;34.70;59.90
41547;DHT22;27271;45.412;10.852;2022-09-13T09:22:35;35.30;58.00
41547;DHT22;27271;45.412;10.852;2022-09-13T09:26:14;35.50;55.80
41547;DHT22;27271;45.412;10.852;2022-09-13T09:29:37;35.40;56.50
41547;DHT22;27271;45.412;10.852;2022-09-13T09:37:04;34.00;59.50
41547;DHT22;27271;45.412;10.852;2022-09-13T09:40:39;33.30;59.50
41547;DHT22;27271;45.412;10.852;2022-09-13T09:47:30;34.10;58.50
41547;DHT22;27271;45.412;10.852;2022-09-13T09:50:56;33.90;59.10
41547;DHT22;27271;45.412;10.852;2022-09-13T09:54:23;33.90;56.90
41547;DHT22;27271;45.412;10.852;2022-09-13T09:57:53;33.30;64.00
41547;DHT22;27271;45.412;10.852;2022-09-13T10:01:37;33.90;59.20
41547;DHT22;27271;45.412;10.852;2022-09-13T10:05:02;34.50;57.00
41547;DHT22;27271;45.412;10.852;2022-09-13T10:08:32;35.10;57.50
41547;DHT22;27271;45.412;10.852;2022-09-13T10:11:56;34.50;55.40
41547;DHT22;27271;45.412;10.852;2022-09-13T10:15:21;34.00;60.80
41547;DHT22;27271;45.412;10.852;2022-09-13T10:18:44;34.10;57.40
41547;DHT22;27271;45.412;10.852;2022-09-13T10:22:11;33.10;60.20
41547;DHT22;27271;45.412;10.852;2022-09-13T10:25:34;33.00;61.50
41547;DHT22;27271;45.412;10.852;2022-09-13T10:29:05;32.60;61.30
41547;DHT22;27271;45.412;10.852;2022-09-13T10:32:54;32.80;60.20
41547;DHT22;27271;45.412;10.852;2022-09-13T10:36:42;33.40;60.40
41547;DHT22;27271;45.412;10.852;2022-09-13T10:40:32;34.00;58.40
41547;DHT22;27271;45.412;10.852;2022-09-13T10:44:06;33.30;59.60
41547;DHT22;27271;45.412;10.852;2022-09-13T10:47:47;32.00;64.90
41547;DHT22;27271;45.412;10.852;2022-09-13T10:51:28;31.60;66.10
41547;DHT22;27271;45.412;10.852;2022-09-13T10:54:56;31.00;62.50
41547;DHT22;27271;45.412;10.852;2022-09-13T10:58:41;31.00;66.10
41547;DHT22;27271;45.412;10.852;2022-09-13T11:02:45;31.10;64.50
41547;DHT22;27271;45.412;10.852;2022-09-13T11:10:15;30.40;66.00
41547;DHT22;27271;45.412;10.852;2022-09-13T11:29:18;31.20;64.10
41547;DHT22;27271;45.412;10.852;2022-09-13T11:40:38;31.30;66.60
41547;DHT22;27271;45.412;10.852;2022-09-13T11:59:42;31.10;62.60
41547;DHT22;27271;45.412;10.852;2022-09-13T12:03:20;31.10;62.50
41547;DHT22;27271;45.412;10.852;2022-09-13T12:06:52;30.70;63.60
41547;DHT22;27271;45.412;10.852;2022-09-13T12:10:21;30.90;61.40
41547;DHT22;27271;45.412;10.852;2022-09-13T12:13:53;31.40;61.80
41547;DHT22;27271;45.412;10.852;2022-09-13T12:17:39;31.70;59.90
41547;DHT22;27271;45.412;10.852;2022-09-13T12:21:15;32.10;62.70
41547;DHT22;27271;45.412;10.852;2022-09-13T12:24:46;31.90;58.60
41547;DHT22;27271;45.412;10.852;2022-09-13T12:32:09;32.10;60.60
41547;DHT22;27271;45.412;10.852;2022-09-13T12:51:06;30.00;68.40
41547;DHT22;27271;45.412;10.852;2022-09-13T13:02:31;30.20;65.10
41547;DHT22;27271;45.412;10.852;2022-09-13T13:09:44;30.00;64.70
41547;DHT22;27271;45.412;10.852;2022-09-13T13:13:32;30.40;62.80
41547;DHT22;27271;45.412;10.852;2022-09-13T13:17:49;30.80;63.40
41547;DHT22;27271;45.412;10.852;2022-09-13T13:21:20;30.70;63.30
41547;DHT22;27271;45.412;10.852;2022-09-13T13:24:46;30.90;63.00
41547;DHT22;27271;45.412;10.852;2022-09-13T13:32:13;31.30;61.80
41547;DHT22;27271;45.412;10.852;2022-09-13T13:35:39;30.80;65.90
41547;DHT22;27271;45.412;10.852;2022-09-13T13:39:02;30.20;64.80
41547;DHT22;27271;45.412;10.852;2022-09-13T13:42:27;30.10;64.70
41547;DHT22;27271;45.412;10.852;2022-09-13T13:53:18;30.80;64.10
41547;DHT22;27271;45.412;10.852;2022-09-13T13:56:46;31.20;61.60
41547;DHT22;27271;45.412;10.852;2022-09-13T14:00:25;31.20;64.00
41547;DHT22;27271;45.412;10.852;2022-09-13T14:14:43;29.70;67.20
41547;DHT22;27271;45.412;10.852;2022-09-13T14:18:16;30.20;66.60
41547;DHT22;27271;45.412;10.852;2022-09-13T14:21:40;30.00;66.40
41547;DHT22;27271;45.412;10.852;2022-09-13T14:25:21;30.60;62.80
41547;DHT22;27271;45.412;10.852;2022-09-13T14:28:44;30.60;64.00
41547;DHT22;27271;45.412;10.852;2022-09-13T14:32:12;30.30;67.10
41547;DHT22;27271;45.412;10.852;2022-09-13T14:35:39;29.80;65.60
41547;DHT22;27271;45.412;10.852;2022-09-13T14:39:01;30.00;68.20
41547;DHT22;27271;45.412;10.852;2022-09-13T14:42:24;30.20;64.60
41547;DHT22;27271;45.412;10.852;2022-09-13T14:45:49;30.70;64.00
41547;DHT22;27271;45.412;10.852;2022-09-13T14:49:23;30.90;65.20
41547;DHT22;27271;45.412;10.852;2022-09-13T14:53:07;30.60;64.70
41547;DHT22;27271;45.412;10.852;2022-09-13T14:56:36;30.30;68.30
41547;DHT22;27271;45.412;10.852;2022-09-13T15:03:35;30.50;62.90
41547;DHT22;27271;45.412;10.852;2022-09-13T15:07:34;30.60;65.40
41547;DHT22;27271;45.412;10.852;2022-09-13T15:10:57;30.60;63.60
41547;DHT22;27271;45.412;10.852;2022-09-13T15:21:23;30.30;63.10
41547;DHT22;27271;45.412;10.852;2022-09-13T15:24:52;29.80;65.80
41547;DHT22;27271;45.412;10.852;2022-09-13T15:28:27;29.20;65.70
41547;DHT22;27271;45.412;10.852;2022-09-13T15:31:57;29.10;69.80
41547;DHT22;27271;45.412;10.852;2022-09-13T15:35:29;28.90;67.50
41547;DHT22;27271;45.412;10.852;2022-09-13T15:39:03;28.60;69.40
41547;DHT22;27271;45.412;10.852;2022-09-13T15:42:34;28.20;68.00
41547;DHT22;27271;45.412;10.852;2022-09-13T15:45:58;28.20;70.60
41547;DHT22;27271;45.412;10.852;2022-09-13T15:49:25;28.00;69.40
41547;DHT22;27271;45.412;10.852;2022-09-13T15:52:48;27.60;69.20
41547;DHT22;27271;45.412;10.852;2022-09-13T15:56:13;27.30;72.60
41547;DHT22;27271;45.412;10.852;2022-09-13T15:59:36;27.10;74.90
41547;DHT22;27271;45.412;10.852;2022-09-13T16:02:59;27.00;75.30
41547;DHT22;27271;45.412;10.852;2022-09-13T16:06:21;26.80;76.70
41547;DHT22;27271;45.412;10.852;2022-09-13T16:09:46;26.70;78.40
41547;DHT22;27271;45.412;10.852;2022-09-13T16:13:10;26.60;79.30
41547;DHT22;27271;45.412;10.852;2022-09-13T16:16:32;26.40;79.20
41547;DHT22;27271;45.412;10.852;2022-09-13T16:20:00;26.20;75.20
41547;DHT22;27271;45.412;10.852;2022-09-13T16:23:30;26.10;74.50
41547;DHT22;27271;45.412;10.852;2022-09-13T16:26:53;26.00;76.10
41547;DHT22;27271;45.412;10.852;2022-09-13T16:30:18;26.00;75.20
41547;DHT22;27271;45.412;10.852;2022-09-13T16:33:41;25.90;75.80
41547;DHT22;27271;45.412;10.852;2022-09-13T16:37:04;25.90;74.60
41547;DHT22;27271;45.412;10.852;2022-09-13T16:40:27;25.90;74.90
41547;DHT22;27271;45.412;10.852;2022-09-13T16:43:50;25.90;74.40
41547;DHT22;27271;45.412;10.852;2022-09-13T16:47:13;25.90;76.60
41547;DHT22;27271;45.412;10.852;2022-09-13T16:50:38;25.80;73.90
41547;DHT22;27271;45.412;10.852;2022-09-13T16:54:01;25.90;80.00
41547;DHT22;27271;45.412;10.852;2022-09-13T16:57:24;26.00;80.70
41547;DHT22;27271;45.412;10.852;2022-09-13T17:00:47;25.90;81.50
41547;DHT22;27271;45.412;10.852;2022-09-13T17:04:09;26.00;82.10
41547;DHT22;27271;45.412;10.852;2022-09-13T17:07:34;25.90;83.10
41547;DHT22;27271;45.412;10.852;2022-09-13T17:10:58;25.80;83.70
41547;DHT22;27271;45.412;10.852;2022-09-13T17:14:20;25.70;83.90
41547;DHT22;27271;45.412;10.852;2022-09-13T17:17:42;25.50;84.80
41547;DHT22;27271;45.412;10.852;2022-09-13T17:21:05;25.20;85.50
41547;DHT22;27271;45.412;10.852;2022-09-13T17:24:30;25.00;87.10
41547;DHT22;27271;45.412;10.852;2022-09-13T17:27:52;24.80;88.10
41547;DHT22;27271;45.412;10.852;2022-09-13T17:31:15;24.70;88.80
41547;DHT22;27271;45.412;10.852;2022-09-13T17:34:37;24.50;89.90
41547;DHT22;27271;45.412;10.852;2022-09-13T17:38:00;24.40;91.00
41547;DHT22;27271;45.412;10.852;2022-09-13T17:41:25;24.30;90.60
41547;DHT22;27271;45.412;10.852;2022-09-13T17:44:48;24.20;90.90
41547;DHT22;27271;45.412;10.852;2022-09-13T17:48:11;24.10;90.70
41547;DHT22;27271;45.412;10.852;2022-09-13T17:51:33;24.00;91.80
41547;DHT22;27271;45.412;10.852;2022-09-13T17:54:56;23.90;92.10
41547;DHT22;27271;45.412;10.852;2022-09-13T17:58:18;23.80;92.30
41547;DHT22;27271;45.412;10.852;2022-09-13T18:01:45;23.70;92.90
41547;DHT22;27271;45.412;10.852;2022-09-13T18:05:08;23.60;93.00
41547;DHT22;27271;45.412;10.852;2022-09-13T18:08:36;23.60;93.40
41547;DHT22;27271;45.412;10.852;2022-09-13T18:11:58;23.50;94.20
41547;DHT22;27271;45.412;10.852;2022-09-13T18:15:20;23.50;95.20
41547;DHT22;27271;45.412;10.852;2022-09-13T18:18:43;23.50;93.80
41547;DHT22;27271;45.412;10.852;2022-09-13T18:22:08;23.40;94.10
41547;DHT22;27271;45.412;10.852;2022-09-13T18:25:30;23.40;93.70
41547;DHT22;27271;45.412;10.852;2022-09-13T18:28:57;23.40;93.60
41547;DHT22;27271;45.412;10.852;2022-09-13T18:32:20;23.40;93.80
41547;DHT22;27271;45.412;10.852;2022-09-13T18:35:42;23.30;92.90
41547;DHT22;27271;45.412;10.852;2022-09-13T18:39:06;23.30;92.70
41547;DHT22;27271;45.412;10.852;2022-09-13T18:42:28;23.20;93.70
41547;DHT22;27271;45.412;10.852;2022-09-13T18:46:01;23.20;94.00
41547;DHT22;27271;45.412;10.852;2022-09-13T18:49:25;23.20;93.70
41547;DHT22;27271;45.412;10.852;2022-09-13T18:52:48;23.20;93.70
41547;DHT22;27271;45.412;10.852;2022-09-13T18:56:13;23.10;94.40
41547;DHT22;27271;45.412;10.852;2022-09-13T18:59:36;23.10;94.60
41547;DHT22;27271;45.412;10.852;2022-09-13T19:02:58;23.00;95.50
41547;DHT22;27271;45.412;10.852;2022-09-13T19:06:35;22.80;95.60
41547;DHT22;27271;45.412;10.852;2022-09-13T19:09:58;22.70;96.80
41547;DHT22;27271;45.412;10.852;2022-09-13T19:13:20;22.70;97.60
41547;DHT22;27271;45.412;10.852;2022-09-13T19:16:45;22.60;97.80
41547;DHT22;27271;45.412;10.852;2022-09-13T19:20:08;22.60;97.40
41547;DHT22;27271;45.412;10.852;2022-09-13T19:23:32;22.50;97.90
41547;DHT22;27271;45.412;10.852;2022-09-13T19:27:15;22.50;98.50
41547;DHT22;27271;45.412;10.852;2022-09-13T19:30:38;22.50;98.90
41547;DHT22;27271;45.412;10.852;2022-09-13T19:34:01;22.40;99.60
41547;DHT22;27271;45.412;10.852;2022-09-13T19:37:23;22.40;99.20
41547;DHT22;27271;45.412;10.852;2022-09-13T19:40:57;22.20;99.20
41547;DHT22;27271;45.412;10.852;2022-09-13T19:44:19;22.20;99.90
41547;DHT22;27271;45.412;10.852;2022-09-13T19:47:42;22.10;99.90
41547;DHT22;27271;45.412;10.852;2022-09-13T19:51:26;22.00;99.90
41547;DHT22;27271;45.412;10.852;2022-09-13T19:54:49;22.00;99.90
41547;DHT22;27271;45.412;10.852;2022-09-13T19:58:14;21.90;99.90
41547;DHT22;27271;45.412;10.852;2022-09-13T20:01:39;21.90;99.90
41547;DHT22;27271;45.412;10.852;2022-09-13T20:05:03;21.90;99.90
41547;DHT22;27271;45.412;10.852;2022-09-13T20:08:25;21.90;99.90
41547;DHT22;27271;45.412;10.852;2022-09-13T20:11:47;21.80;99.90
41547;DHT22;27271;45.412;10.852;2022-09-13T20:15:09;21.80;99.90
41547;DHT22;27271;45.412;10.852;2022-09-13T20:18:32;21.80;99.90
41547;DHT22;27271;45.412;10.852;2022-09-13T20:21:55;21.80;99.90
41547;DHT22;27271;45.412;10.852;2022-09-13T20:25:17;21.70;99.90
41547;DHT22;27271;45.412;10.852;2022-09-13T20:28:39;21.70;99.90
41547;DHT22;27271;45.412;10.852;2022-09-13T20:32:02;21.70;99.90
41547;DHT22;27271;45.412;10.852;2022-09-13T20:35:24;21.60;99.90
41547;DHT22;27271;45.412;10.852;2022-09-13T20:38:47;21.50;99.90
41547;DHT22;27271;45.412;10.852;2022-09-13T20:42:10;21.40;99.90
41547;DHT22;27271;45.412;10.852;2022-09-13T20:45:32;21.40;99.90
41547;DHT22;27271;45.412;10.852;2022-09-13T20:48:54;21.30;99.90
41547;DHT22;27271;45.412;10.852;2022-09-13T20:52:17;21.10;99.90
41547;DHT22;27271;45.412;10.852;2022-09-13T20:55:39;21.10;99.90
41547;DHT22;27271;45.412;10.852;2022-09-13T20:59:03;21.00;99.90
41547;DHT22;27271;45.412;10.852;2022-09-13T21:02:25;20.90;99.90
41547;DHT22;27271;45.412;10.852;2022-09-13T21:05:51;20.90;99.90
41547;DHT22;27271;45.412;10.852;2022-09-13T21:09:17;20.90;99.90
41547;DHT22;27271;45.412;10.852;2022-09-13T21:12:40;20.90;99.90
41547;DHT22;27271;45.412;10.852;2022-09-13T21:16:11;20.90;99.90
41547;DHT22;27271;45.412;10.852;2022-09-13T21:19:34;20.90;99.90
41547;DHT22;27271;45.412;10.852;2022-09-13T21:22:56;20.80;99.90
41547;DHT22;27271;45.412;10.852;2022-09-13T21:26:19;20.70;99.90
41547;DHT22;27271;45.412;10.852;2022-09-13T21:29:42;20.60;99.90
41547;DHT22;27271;45.412;10.852;2022-09-13T21:33:04;20.50;99.90
41547;DHT22;27271;45.412;10.852;2022-09-13T21:36:27;20.50;99.90
41547;DHT22;27271;45.412;10.852;2022-09-13T21:39:50;20.50;99.90
41547;DHT22;27271;45.412;10.852;2022-09-13T21:43:12;20.50;99.90
41547;DHT22;27271;45.412;10.852;2022-09-13T21:46:36;20.50;99.90
41547;DHT22;27271;45.412;10.852;2022-09-13T21:49:59;20.50;99.90
41547;DHT22;27271;45.412;10.852;2022-09-13T21:53:21;20.50;99.90
41547;DHT22;27271;45.412;10.852;2022-09-13T21:56:48;20.60;99.90
41547;DHT22;27271;45.412;10.852;2022-09-13T22:00:11;20.70;99.90
41547;DHT22;27271;45.412;10.852;2022-09-13T22:03:36;20.70;99.90
41547;DHT22;27271;45.412;10.852;2022-09-13T22:06:58;20.80;99.90
41547;DHT22;27271;45.412;10.852;2022-09-13T22:10:20;20.80;99.90
41547;DHT22;27271;45.412;10.852;2022-09-13T22:13:43;20.90;99.90
41547;DHT22;27271;45.412;10.852;2022-09-13T22:17:08;21.00;99.90
41547;DHT22;27271;45.412;10.852;2022-09-13T22:20:30;21.10;99.90
41547;DHT22;27271;45.412;10.852;2022-09-13T22:23:55;21.20;99.90
41547;DHT22;27271;45.412;10.852;2022-09-13T22:27:19;21.20;99.90
41547;DHT22;27271;45.412;10.852;2022-09-13T22:30:41;21.20;99.90
41547;DHT22;27271;45.412;10.852;2022-09-13T22:34:03;21.20;99.90
41547;DHT22;27271;45.412;10.852;2022-09-13T22:37:25;21.20;99.90
41547;DHT22;27271;45.412;10.852;2022-09-13T22:40:58;21.20;99.90
41547;DHT22;27271;45.412;10.852;2022-09-13T22:44:21;21.20;99.90
41547;DHT22;27271;45.412;10.852;2022-09-13T22:47:43;21.10;99.90
41547;DHT22;27271;45.412;10.852;2022-09-13T22:51:06;21.10;99.90
41547;DHT22;27271;45.412;10.852;2022-09-13T22:54:29;21.10;99.90
41547;DHT22;27271;45.412;10.852;2022-09-13T22:57:54;21.00;99.90
41547;DHT22;27271;45.412;10.852;2022-09-13T23:01:17;21.00;99.90
41547;DHT22;27271;45.412;10.852;2022-09-13T23:04:40;21.10;99.90
41547;DHT22;27271;45.412;10.852;2022-09-13T23:08:02;21.10;99.90
41547;DHT22;27271;45.412;10.852;2022-09-13T23:11:27;21.00;99.90
41547;DHT22;27271;45.412;10.852;2022-09-13T23:14:49;21.00;99.90
41547;DHT22;27271;45.412;10.852;2022-09-13T23:18:11;21.00;99.90
41547;DHT22;27271;45.412;10.852;2022-09-13T23:21:36;20.90;99.90
41547;DHT22;27271;45.412;10.852;2022-09-13T23:24:58;20.90;99.90
41547;DHT22;27271;45.412;10.852;2022-09-13T23:28:20;20.80;99.90
41547;DHT22;27271;45.412;10.852;2022-09-13T23:31:42;20.70;99.90
41547;DHT22;27271;45.412;10.852;2022-09-13T23:35:04;20.60;99.90
41547;DHT22;27271;45.412;10.852;2022-09-13T23:38:27;20.60;99.90
41547;DHT22;27271;45.412;10.852;2022-09-13T23:41:49;20.50;99.90
41547;DHT22;27271;45.412;10.852;2022-09-13T23:45:12;20.50;99.90
41547;DHT22;27271;45.412;10.852;2022-09-13T23:48:34;20.50;99.90
41547;DHT22;27271;45.412;10.852;2022-09-13T23:51:56;20.50;99.90
41547;DHT22;27271;45.412;10.852;2022-09-13T23:55:18;20.50;99.90
41547;DHT22;27271;45.412;10.852;2022-09-13T23:58:41;20.50;99.90
